sensor_id;sensor_type;location;lat;lon;timestamp;temperature;humidity
2012;DHT22;1009;51.436;6.972;2023-10-31T00:01:28;12.50;99.90
2012;DHT22;1009;51.436;6.972;2023-10-31T00:03:55;12.40;99.90
2012;DHT22;1009;51.436;6.972;2023-10-31T00:06:22;12.30;99.90
2012;DHT22;1009;51.436;6.972;2023-10-31T00:08:50;12.20;99.90
2012;DHT22;1009;51.436;6.972;2023-10-31T00:11:17;12.10;99.90
2012;DHT22;1009;51.436;6.972;2023-10-31T00:13:44;12.00;99.90
2012;DHT22;1009;51.436;6.972;2023-10-31T00:16:10;11.70;99.90
2012;DHT22;1009;51.436;6.972;2023-10-31T00:18:37;11.70;99.90
2012;DHT22;1009;51.436;6.972;2023-10-31T00:21:04;11.60;99.90
2012;DHT22;1009;51.436;6.972;2023-10-31T00:23:31;11.50;99.90
2012;DHT22;1009;51.436;6.972;2023-10-31T00:25:59;11.50;99.90
2012;DHT22;1009;51.436;6.972;2023-10-31T00:28:26;11.40;99.90
2012;DHT22;1009;51.436;6.972;2023-10-31T00:30:53;11.40;99.90
2012;DHT22;1009;51.436;6.972;2023-10-31T00:33:21;11.30;99.90
2012;DHT22;1009;51.436;6.972;2023-10-31T00:35:48;11.30;99.90
2012;DHT22;1009;51.436;6.972;2023-10-31T00:38:15;11.30;99.90
2012;DHT22;1009;51.436;6.972;2023-10-31T00:40:41;11.30;99.90
2012;DHT22;1009;51.436;6.972;2023-10-31T00:43:09;11.30;99.90
2012;DHT22;1009;51.436;6.972;2023-10-31T00:45:36;11.30;99.90
2012;DHT22;1009;51.436;6.972;2023-10-31T00:48:03;11.30;99.90
2012;DHT22;1009;51.436;6.972;2023-10-31T00:50:30;11.20;99.90
2012;DHT22;1009;51.436;6.972;2023-10-31T00:52:57;11.20;99.90
2012;DHT22;1009;51.436;6.972;2023-10-31T00:55:23;11.30;99.90
2012;DHT22;1009;51.436;6.972;2023-10-31T00:57:50;11.20;99.90
2012;DHT22;1009;51.436;6.972;2023-10-31T01:00:19;11.20;99.90
2012;DHT22;1009;51.436;6.972;2023-10-31T01:02:46;11.20;99.90
2012;DHT22;1009;51.436;6.972;2023-10-31T01:05:13;11.20;99.90
2012;DHT22;1009;51.436;6.972;2023-10-31T01:07:40;11.10;99.90
2012;DHT22;1009;51.436;6.972;2023-10-31T01:10:07;11.00;99.90
2012;DHT22;1009;51.436;6.972;2023-10-31T01:12:34;11.00;99.90
2012;DHT22;1009;51.436;6.972;2023-10-31T01:15:00;11.10;99.90
2012;DHT22;1009;51.436;6.972;2023-10-31T01:17:28;11.10;99.90
2012;DHT22;1009;51.436;6.972;2023-10-31T01:19:55;11.10;99.90
2012;DHT22;1009;51.436;6.972;2023-10-31T01:22:22;11.10;99.90
2012;DHT22;1009;51.436;6.972;2023-10-31T01:24:49;11.10;99.90
2012;DHT22;1009;51.436;6.972;2023-10-31T01:27:16;11.00;99.90
2012;DHT22;1009;51.436;6.972;2023-10-31T01:29:42;11.10;99.90
2012;DHT22;1009;51.436;6.972;2023-10-31T01:32:09;11.10;99.90
2012;DHT22;1009;51.436;6.972;2023-10-31T01:34:37;11.10;99.90
2012;DHT22;1009;51.436;6.972;2023-10-31T01:37:04;11.20;99.90
2012;DHT22;1009;51.436;6.972;2023-10-31T01:39:31;11.10;99.90
2012;DHT22;1009;51.436;6.972;2023-10-31T01:41:57;11.20;99.90
2012;DHT22;1009;51.436;6.972;2023-10-31T01:44:24;11.20;99.90
2012;DHT22;1009;51.436;6.972;2023-10-31T01:46:51;11.30;99.90
2012;DHT22;1009;51.436;6.972;2023-10-31T01:49:18;11.30;99.90
2012;DHT22;1009;51.436;6.972;2023-10-31T01:51:46;11.20;99.90
2012;DHT22;1009;51.436;6.972;2023-10-31T01:54:14;11.20;99.90
2012;DHT22;1009;51.436;6.972;2023-10-31T01:56:42;11.20;99.90
2012;DHT22;1009;51.436;6.972;2023-10-31T01:59:09;11.20;99.90
2012;DHT22;1009;51.436;6.972;2023-10-31T02:01:38;11.20;99.90
2012;DHT22;1009;51.436;6.972;2023-10-31T02:04:05;11.20;99.90
2012;DHT22;1009;51.436;6.972;2023-10-31T02:06:32;11.20;99.90
2012;DHT22;1009;51.436;6.972;2023-10-31T02:09:00;11.20;99.90
2012;DHT22;1009;51.436;6.972;2023-10-31T02:11:27;11.20;99.90
2012;DHT22;1009;51.436;6.972;2023-10-31T02:13:53;11.20;99.90
2012;DHT22;1009;51.436;6.972;2023-10-31T02:16:20;11.20;99.90
2012;DHT22;1009;51.436;6.972;2023-10-31T02:18:47;11.30;99.90
2012;DHT22;1009;51.436;6.972;2023-10-31T02:21:14;11.20;99.90
2012;DHT22;1009;51.436;6.972;2023-10-31T02:23:42;11.20;99.90
2012;DHT22;1009;51.436;6.972;2023-10-31T02:26:09;11.20;99.90
2012;DHT22;1009;51.436;6.972;2023-10-31T02:28:36;11.10;99.90
2012;DHT22;1009;51.436;6.972;2023-10-31T02:31:04;11.10;99.90
2012;DHT22;1009;51.436;6.972;2023-10-31T02:33:30;11.10;99.90
2012;DHT22;1009;51.436;6.972;2023-10-31T02:35:57;11.10;99.90
2012;DHT22;1009;51.436;6.972;2023-10-31T02:38:24;11.20;99.90
2012;DHT22;1009;51.436;6.972;2023-10-31T02:40:52;11.10;99.90
2012;DHT22;1009;51.436;6.972;2023-10-31T02:43:19;11.10;99.90
2012;DHT22;1009;51.436;6.972;2023-10-31T02:45:45;11.10;99.90
2012;DHT22;1009;51.436;6.972;2023-10-31T02:48:12;11.00;99.90
2012;DHT22;1009;51.436;6.972;2023-10-31T02:50:39;11.00;99.90
2012;DHT22;1009;51.436;6.972;2023-10-31T02:53:05;11.10;99.90
2012;DHT22;1009;51.436;6.972;2023-10-31T02:55:32;11.00;99.90
2012;DHT22;1009;51.436;6.972;2023-10-31T02:58:00;11.10;99.90
2012;DHT22;1009;51.436;6.972;2023-10-31T03:00:27;11.00;99.90
2012;DHT22;1009;51.436;6.972;2023-10-31T03:02:53;11.00;99.90
2012;DHT22;1009;51.436;6.972;2023-10-31T03:05:20;11.00;99.90
2012;DHT22;1009;51.436;6.972;2023-10-31T03:07:47;11.10;99.90
2012;DHT22;1009;51.436;6.972;2023-10-31T03:10:15;11.10;99.90
2012;DHT22;1009;51.436;6.972;2023-10-31T03:12:41;11.10;99.90
2012;DHT22;1009;51.436;6.972;2023-10-31T03:15:10;11.20;99.90
2012;DHT22;1009;51.436;6.972;2023-10-31T03:17:37;11.20;99.90
2012;DHT22;1009;51.436;6.972;2023-10-31T03:20:05;11.10;99.90
2012;DHT22;1009;51.436;6.972;2023-10-31T03:22:32;11.10;99.90
2012;DHT22;1009;51.436;6.972;2023-10-31T03:24:59;11.20;99.90
2012;DHT22;1009;51.436;6.972;2023-10-31T03:27:26;11.20;99.90
2012;DHT22;1009;51.436;6.972;2023-10-31T03:29:53;11.20;99.90
2012;DHT22;1009;51.436;6.972;2023-10-31T03:32:21;11.20;99.90
2012;DHT22;1009;51.436;6.972;2023-10-31T03:34:48;11.20;99.90
2012;DHT22;1009;51.436;6.972;2023-10-31T03:37:14;11.20;99.90
2012;DHT22;1009;51.436;6.972;2023-10-31T03:39:41;11.20;99.90
2012;DHT22;1009;51.436;6.972;2023-10-31T03:42:08;11.20;99.90
2012;DHT22;1009;51.436;6.972;2023-10-31T03:44:34;11.10;99.90
2012;DHT22;1009;51.436;6.972;2023-10-31T03:47:01;11.00;99.90
2012;DHT22;1009;51.436;6.972;2023-10-31T03:49:30;11.10;99.90
2012;DHT22;1009;51.436;6.972;2023-10-31T03:51:56;11.20;99.90
2012;DHT22;1009;51.436;6.972;2023-10-31T03:54:23;11.20;99.90
2012;DHT22;1009;51.436;6.972;2023-10-31T03:56:50;11.10;99.90
2012;DHT22;1009;51.436;6.972;2023-10-31T03:59:16;11.10;99.90
2012;DHT22;1009;51.436;6.972;2023-10-31T04:01:43;11.00;99.90
2012;DHT22;1009;51.436;6.972;2023-10-31T04:04:10;11.00;99.90
2012;DHT22;1009;51.436;6.972;2023-10-31T04:06:38;11.00;99.90
2012;DHT22;1009;51.436;6.972;2023-10-31T04:09:06;10.90;99.90
2012;DHT22;1009;51.436;6.972;2023-10-31T04:11:33;11.00;99.90
2012;DHT22;1009;51.436;6.972;2023-10-31T04:13:59;10.90;99.90
2012;DHT22;1009;51.436;6.972;2023-10-31T04:16:26;10.90;99.90
2012;DHT22;1009;51.436;6.972;2023-10-31T04:18:53;10.90;99.90
2012;DHT22;1009;51.436;6.972;2023-10-31T04:21:20;10.90;99.90
2012;DHT22;1009;51.436;6.972;2023-10-31T04:23:48;10.80;99.90
2012;DHT22;1009;51.436;6.972;2023-10-31T04:26:14;10.90;99.90
2012;DHT22;1009;51.436;6.972;2023-10-31T04:28:42;10.90;99.90
2012;DHT22;1009;51.436;6.972;2023-10-31T04:31:09;11.00;99.90
2012;DHT22;1009;51.436;6.972;2023-10-31T04:33:36;11.00;99.90
2012;DHT22;1009;51.436;6.972;2023-10-31T04:36:03;11.00;99.90
2012;DHT22;1009;51.436;6.972;2023-10-31T04:38:30;10.90;99.90
2012;DHT22;1009;51.436;6.972;2023-10-31T04:40:58;10.90;99.90
2012;DHT22;1009;51.436;6.972;2023-10-31T04:43:25;10.90;99.90
2012;DHT22;1009;51.436;6.972;2023-10-31T04:45:51;10.90;99.90
2012;DHT22;1009;51.436;6.972;2023-10-31T04:48:18;10.90;99.90
2012;DHT22;1009;51.436;6.972;2023-10-31T04:50:45;10.90;99.90
2012;DHT22;1009;51.436;6.972;2023-10-31T04:53:12;11.00;99.90
2012;DHT22;1009;51.436;6.972;2023-10-31T04:55:38;10.90;99.90
2012;DHT22;1009;51.436;6.972;2023-10-31T04:58:06;11.00;99.90
2012;DHT22;1009;51.436;6.972;2023-10-31T05:00:33;11.00;99.90
2012;DHT22;1009;51.436;6.972;2023-10-31T05:03:00;11.00;99.90
2012;DHT22;1009;51.436;6.972;2023-10-31T05:05:28;10.90;99.90
2012;DHT22;1009;51.436;6.972;2023-10-31T05:07:55;10.90;99.90
2012;DHT22;1009;51.436;6.972;2023-10-31T05:10:21;11.00;99.90
2012;DHT22;1009;51.436;6.972;2023-10-31T05:12:48;11.00;99.90
2012;DHT22;1009;51.436;6.972;2023-10-31T05:15:17;11.00;99.90
2012;DHT22;1009;51.436;6.972;2023-10-31T05:17:44;10.90;99.90
2012;DHT22;1009;51.436;6.972;2023-10-31T05:20:11;10.90;99.90
2012;DHT22;1009;51.436;6.972;2023-10-31T05:22:38;10.90;99.90
2012;DHT22;1009;51.436;6.972;2023-10-31T05:25:05;10.90;99.90
2012;DHT22;1009;51.436;6.972;2023-10-31T05:27:31;10.90;99.90
2012;DHT22;1009;51.436;6.972;2023-10-31T05:29:58;10.90;99.90
2012;DHT22;1009;51.436;6.972;2023-10-31T05:32:26;10.80;99.90
2012;DHT22;1009;51.436;6.972;2023-10-31T05:34:53;10.90;99.90
2012;DHT22;1009;51.436;6.972;2023-10-31T05:37:20;10.90;99.90
2012;DHT22;1009;51.436;6.972;2023-10-31T05:39:46;10.90;99.90
2012;DHT22;1009;51.436;6.972;2023-10-31T05:42:13;10.80;99.90
2012;DHT22;1009;51.436;6.972;2023-10-31T05:44:40;10.90;99.90
2012;DHT22;1009;51.436;6.972;2023-10-31T05:47:07;10.90;99.90
2012;DHT22;1009;51.436;6.972;2023-10-31T05:49:35;10.90;99.90
2012;DHT22;1009;51.436;6.972;2023-10-31T05:52:02;10.90;99.90
2012;DHT22;1009;51.436;6.972;2023-10-31T05:54:28;10.90;99.90
2012;DHT22;1009;51.436;6.972;2023-10-31T05:56:55;10.80;99.90
2012;DHT22;1009;51.436;6.972;2023-10-31T05:59:22;10.80;99.90
2012;DHT22;1009;51.436;6.972;2023-10-31T06:01:49;10.90;99.90
2012;DHT22;1009;51.436;6.972;2023-10-31T06:04:15;10.90;99.90
2012;DHT22;1009;51.436;6.972;2023-10-31T06:06:43;10.90;99.90
2012;DHT22;1009;51.436;6.972;2023-10-31T06:09:10;10.90;99.90
2012;DHT22;1009;51.436;6.972;2023-10-31T06:11:41;10.90;99.90
2012;DHT22;1009;51.436;6.972;2023-10-31T06:14:09;10.90;99.90
2012;DHT22;1009;51.436;6.972;2023-10-31T06:16:40;10.90;99.90
2012;DHT22;1009;51.436;6.972;2023-10-31T06:19:07;10.90;99.90
2012;DHT22;1009;51.436;6.972;2023-10-31T06:21:34;10.90;99.90
2012;DHT22;1009;51.436;6.972;2023-10-31T06:24:02;11.00;99.90
2012;DHT22;1009;51.436;6.972;2023-10-31T06:26:29;11.00;99.90
2012;DHT22;1009;51.436;6.972;2023-10-31T06:28:56;11.00;99.90
2012;DHT22;1009;51.436;6.972;2023-10-31T06:31:23;11.00;99.90
2012;DHT22;1009;51.436;6.972;2023-10-31T06:33:49;11.00;99.90
2012;DHT22;1009;51.436;6.972;2023-10-31T06:36:16;11.00;99.90
2012;DHT22;1009;51.436;6.972;2023-10-31T06:38:43;11.00;99.90
2012;DHT22;1009;51.436;6.972;2023-10-31T06:41:11;11.00;99.90
2012;DHT22;1009;51.436;6.972;2023-10-31T06:43:38;11.00;99.90
2012;DHT22;1009;51.436;6.972;2023-10-31T06:46:05;10.90;99.90
2012;DHT22;1009;51.436;6.972;2023-10-31T06:48:32;10.90;99.90
2012;DHT22;1009;51.436;6.972;2023-10-31T06:50:59;10.90;99.90
2012;DHT22;1009;51.436;6.972;2023-10-31T06:53:26;11.00;99.90
2012;DHT22;1009;51.436;6.972;2023-10-31T06:55:52;11.00;99.90
2012;DHT22;1009;51.436;6.972;2023-10-31T06:58:21;11.00;99.90
2012;DHT22;1009;51.436;6.972;2023-10-31T07:00:47;11.00;99.90
2012;DHT22;1009;51.436;6.972;2023-10-31T07:03:14;11.00;99.90
2012;DHT22;1009;51.436;6.972;2023-10-31T07:05:41;11.00;99.90
2012;DHT22;1009;51.436;6.972;2023-10-31T07:08:08;11.10;99.90
2012;DHT22;1009;51.436;6.972;2023-10-31T07:10:35;11.10;99.90
2012;DHT22;1009;51.436;6.972;2023-10-31T07:13:02;11.10;99.90
2012;DHT22;1009;51.436;6.972;2023-10-31T07:15:31;11.20;99.90
2012;DHT22;1009;51.436;6.972;2023-10-31T07:17:57;11.10;99.90
2012;DHT22;1009;51.436;6.972;2023-10-31T07:20:24;11.20;99.90
2012;DHT22;1009;51.436;6.972;2023-10-31T07:22:51;11.10;99.90
2012;DHT22;1009;51.436;6.972;2023-10-31T07:25:18;11.10;99.90
2012;DHT22;1009;51.436;6.972;2023-10-31T07:27:44;11.10;99.90
2012;DHT22;1009;51.436;6.972;2023-10-31T07:30:12;11.10;99.90
2012;DHT22;1009;51.436;6.972;2023-10-31T07:32:40;11.20;99.90
2012;DHT22;1009;51.436;6.972;2023-10-31T07:35:07;11.20;99.90
2012;DHT22;1009;51.436;6.972;2023-10-31T07:37:34;11.20;99.90
2012;DHT22;1009;51.436;6.972;2023-10-31T07:40:00;11.20;99.90
2012;DHT22;1009;51.436;6.972;2023-10-31T07:42:29;11.20;99.90
2012;DHT22;1009;51.436;6.972;2023-10-31T07:44:56;11.20;99.90
2012;DHT22;1009;51.436;6.972;2023-10-31T07:47:23;11.20;99.90
2012;DHT22;1009;51.436;6.972;2023-10-31T07:49:51;11.20;99.90
2012;DHT22;1009;51.436;6.972;2023-10-31T07:52:19;11.20;99.90
2012;DHT22;1009;51.436;6.972;2023-10-31T07:54:45;11.20;99.90
2012;DHT22;1009;51.436;6.972;2023-10-31T07:57:12;11.20;99.90
2012;DHT22;1009;51.436;6.972;2023-10-31T07:59:39;11.20;99.90
2012;DHT22;1009;51.436;6.972;2023-10-31T08:02:06;11.20;99.90
2012;DHT22;1009;51.436;6.972;2023-10-31T08:04:32;11.20;99.90
2012;DHT22;1009;51.436;6.972;2023-10-31T08:07:00;11.20;99.90
2012;DHT22;1009;51.436;6.972;2023-10-31T08:09:27;11.20;99.90
2012;DHT22;1009;51.436;6.972;2023-10-31T08:11:54;11.30;99.90
2012;DHT22;1009;51.436;6.972;2023-10-31T08:14:21;11.20;99.90
2012;DHT22;1009;51.436;6.972;2023-10-31T08:16:48;11.20;99.90
2012;DHT22;1009;51.436;6.972;2023-10-31T08:19:15;11.30;99.90
2012;DHT22;1009;51.436;6.972;2023-10-31T08:21:42;11.30;99.90
2012;DHT22;1009;51.436;6.972;2023-10-31T08:24:11;11.30;99.90
2012;DHT22;1009;51.436;6.972;2023-10-31T08:26:38;11.30;99.90
2012;DHT22;1009;51.436;6.972;2023-10-31T08:29:05;11.30;99.90
2012;DHT22;1009;51.436;6.972;2023-10-31T08:31:32;11.30;99.90
2012;DHT22;1009;51.436;6.972;2023-10-31T08:33:59;11.30;99.90
2012;DHT22;1009;51.436;6.972;2023-10-31T08:36:25;11.30;99.90
2012;DHT22;1009;51.436;6.972;2023-10-31T08:38:52;11.40;99.90
2012;DHT22;1009;51.436;6.972;2023-10-31T08:41:20;11.40;99.90
2012;DHT22;1009;51.436;6.972;2023-10-31T08:43:48;11.30;99.90
2012;DHT22;1009;51.436;6.972;2023-10-31T08:46:15;11.30;99.90
2012;DHT22;1009;51.436;6.972;2023-10-31T08:48:41;11.30;99.90
2012;DHT22;1009;51.436;6.972;2023-10-31T08:51:08;11.40;99.90
2012;DHT22;1009;51.436;6.972;2023-10-31T08:53:35;11.30;99.90
2012;DHT22;1009;51.436;6.972;2023-10-31T08:56:02;11.40;99.90
2012;DHT22;1009;51.436;6.972;2023-10-31T08:58:30;11.40;99.90
2012;DHT22;1009;51.436;6.972;2023-10-31T09:00:56;11.40;99.90
2012;DHT22;1009;51.436;6.972;2023-10-31T09:03:23;11.60;99.90
2012;DHT22;1009;51.436;6.972;2023-10-31T09:05:50;11.70;99.90
2012;DHT22;1009;51.436;6.972;2023-10-31T09:08:17;11.60;99.90
2012;DHT22;1009;51.436;6.972;2023-10-31T09:10:44;11.60;99.90
2012;DHT22;1009;51.436;6.972;2023-10-31T09:13:12;11.50;99.90
2012;DHT22;1009;51.436;6.972;2023-10-31T09:15:40;11.60;99.90
2012;DHT22;1009;51.436;6.972;2023-10-31T09:18:07;11.50;99.90
2012;DHT22;1009;51.436;6.972;2023-10-31T09:20:34;11.50;99.90
2012;DHT22;1009;51.436;6.972;2023-10-31T09:23:03;11.50;99.90
2012;DHT22;1009;51.436;6.972;2023-10-31T09:28:00;12.00;99.90
2012;DHT22;1009;51.436;6.972;2023-10-31T09:42:46;12.40;99.90
2012;DHT22;1009;51.436;6.972;2023-10-31T09:45:15;12.50;99.90
2012;DHT22;1009;51.436;6.972;2023-10-31T09:47:41;12.20;99.90
2012;DHT22;1009;51.436;6.972;2023-10-31T09:50:10;12.20;99.90
2012;DHT22;1009;51.436;6.972;2023-10-31T09:52:37;12.30;99.90
2012;DHT22;1009;51.436;6.972;2023-10-31T09:55:05;12.40;99.90
2012;DHT22;1009;51.436;6.972;2023-10-31T09:57:32;12.30;99.90
2012;DHT22;1009;51.436;6.972;2023-10-31T09:59:59;12.50;99.90
2012;DHT22;1009;51.436;6.972;2023-10-31T13:57:57;14.60;99.90
2012;DHT22;1009;51.436;6.972;2023-10-31T14:00:23;14.80;99.90
2012;DHT22;1009;51.436;6.972;2023-10-31T14:02:50;14.40;99.90
2012;DHT22;1009;51.436;6.972;2023-10-31T14:05:17;14.30;99.90
2012;DHT22;1009;51.436;6.972;2023-10-31T14:07:45;14.30;99.90
2012;DHT22;1009;51.436;6.972;2023-10-31T14:10:13;14.00;99.90
2012;DHT22;1009;51.436;6.972;2023-10-31T14:12:39;13.80;99.90
2012;DHT22;1009;51.436;6.972;2023-10-31T14:15:07;13.70;99.90
2012;DHT22;1009;51.436;6.972;2023-10-31T14:17:33;13.70;99.90
2012;DHT22;1009;51.436;6.972;2023-10-31T14:20:00;13.50;99.90
2012;DHT22;1009;51.436;6.972;2023-10-31T14:22:27;13.50;99.90
2012;DHT22;1009;51.436;6.972;2023-10-31T14:24:55;13.50;99.90
2012;DHT22;1009;51.436;6.972;2023-10-31T14:27:22;13.40;99.90
2012;DHT22;1009;51.436;6.972;2023-10-31T14:29:49;13.40;99.90
2012;DHT22;1009;51.436;6.972;2023-10-31T14:32:15;13.40;99.90
2012;DHT22;1009;51.436;6.972;2023-10-31T14:34:42;13.40;99.90
2012;DHT22;1009;51.436;6.972;2023-10-31T14:37:09;13.40;99.90
2012;DHT22;1009;51.436;6.972;2023-10-31T14:39:35;13.30;99.90
2012;DHT22;1009;51.436;6.972;2023-10-31T14:42:04;13.30;99.90
2012;DHT22;1009;51.436;6.972;2023-10-31T14:44:31;13.30;99.90
2012;DHT22;1009;51.436;6.972;2023-10-31T14:46:57;13.30;99.90
2012;DHT22;1009;51.436;6.972;2023-10-31T14:49:25;13.20;99.90
2012;DHT22;1009;51.436;6.972;2023-10-31T14:51:52;13.20;99.90
2012;DHT22;1009;51.436;6.972;2023-10-31T14:54:19;13.20;99.90
2012;DHT22;1009;51.436;6.972;2023-10-31T14:56:46;13.20;99.90
2012;DHT22;1009;51.436;6.972;2023-10-31T14:59:14;13.30;99.90
2012;DHT22;1009;51.436;6.972;2023-10-31T15:01:41;13.30;99.90
2012;DHT22;1009;51.436;6.972;2023-10-31T15:04:08;13.40;99.90
2012;DHT22;1009;51.436;6.972;2023-10-31T15:06:36;13.40;99.90
2012;DHT22;1009;51.436;6.972;2023-10-31T15:09:03;13.30;99.90
2012;DHT22;1009;51.436;6.972;2023-10-31T15:11:30;13.40;99.90
2012;DHT22;1009;51.436;6.972;2023-10-31T15:13:57;13.40;99.90
2012;DHT22;1009;51.436;6.972;2023-10-31T15:16:25;13.40;99.90
2012;DHT22;1009;51.436;6.972;2023-10-31T15:18:52;13.20;99.90
2012;DHT22;1009;51.436;6.972;2023-10-31T15:21:18;13.20;99.90
2012;DHT22;1009;51.436;6.972;2023-10-31T15:23:45;12.70;99.90
2012;DHT22;1009;51.436;6.972;2023-10-31T15:26:12;13.10;99.90
2012;DHT22;1009;51.436;6.972;2023-10-31T15:28:39;13.10;99.90
2012;DHT22;1009;51.436;6.972;2023-10-31T15:31:07;13.10;99.90
2012;DHT22;1009;51.436;6.972;2023-10-31T15:33:35;13.00;99.90
2012;DHT22;1009;51.436;6.972;2023-10-31T15:36:03;12.90;99.90
2012;DHT22;1009;51.436;6.972;2023-10-31T15:38:29;12.90;99.90
2012;DHT22;1009;51.436;6.972;2023-10-31T15:40:56;12.80;99.90
2012;DHT22;1009;51.436;6.972;2023-10-31T15:43:23;12.90;99.90
2012;DHT22;1009;51.436;6.972;2023-10-31T15:45:50;12.90;99.90
2012;DHT22;1009;51.436;6.972;2023-10-31T15:48:16;12.80;99.90
2012;DHT22;1009;51.436;6.972;2023-10-31T15:50:45;12.90;99.90
2012;DHT22;1009;51.436;6.972;2023-10-31T15:53:11;12.70;99.90
2012;DHT22;1009;51.436;6.972;2023-10-31T15:55:38;12.80;99.90
2012;DHT22;1009;51.436;6.972;2023-10-31T15:58:05;12.80;99.90
2012;DHT22;1009;51.436;6.972;2023-10-31T16:00:32;12.70;99.90
2012;DHT22;1009;51.436;6.972;2023-10-31T16:02:59;12.70;99.90
2012;DHT22;1009;51.436;6.972;2023-10-31T16:05:25;12.80;99.90
2012;DHT22;1009;51.436;6.972;2023-10-31T16:07:53;12.80;99.90
2012;DHT22;1009;51.436;6.972;2023-10-31T16:10:20;12.80;99.90
2012;DHT22;1009;51.436;6.972;2023-10-31T16:12:47;12.80;99.90
2012;DHT22;1009;51.436;6.972;2023-10-31T16:15:14;12.90;99.90
2012;DHT22;1009;51.436;6.972;2023-10-31T16:17:42;12.90;99.90
2012;DHT22;1009;51.436;6.972;2023-10-31T16:20:09;12.90;99.90
2012;DHT22;1009;51.436;6.972;2023-10-31T16:22:35;12.90;99.90
2012;DHT22;1009;51.436;6.972;2023-10-31T16:25:04;13.00;99.90
2012;DHT22;1009;51.436;6.972;2023-10-31T16:27:31;13.00;99.90
2012;DHT22;1009;51.436;6.972;2023-10-31T16:29:58;12.90;99.90
2012;DHT22;1009;51.436;6.972;2023-10-31T16:32:24;12.90;99.90
2012;DHT22;1009;51.436;6.972;2023-10-31T16:34:51;12.90;99.90
2012;DHT22;1009;51.436;6.972;2023-10-31T16:37:19;12.70;99.90
2012;DHT22;1009;51.436;6.972;2023-10-31T16:39:45;12.70;99.90
2012;DHT22;1009;51.436;6.972;2023-10-31T16:42:13;12.40;99.90
2012;DHT22;1009;51.436;6.972;2023-10-31T16:44:41;12.40;99.90
2012;DHT22;1009;51.436;6.972;2023-10-31T16:47:07;12.30;99.90
2012;DHT22;1009;51.436;6.972;2023-10-31T16:49:34;12.20;99.90
2012;DHT22;1009;51.436;6.972;2023-10-31T16:52:01;12.20;99.90
2012;DHT22;1009;51.436;6.972;2023-10-31T16:54:28;12.30;99.90
2012;DHT22;1009;51.436;6.972;2023-10-31T16:56:54;12.20;99.90
2012;DHT22;1009;51.436;6.972;2023-10-31T16:59:23;12.30;99.90
2012;DHT22;1009;51.436;6.972;2023-10-31T17:01:49;12.40;99.90
2012;DHT22;1009;51.436;6.972;2023-10-31T17:04:16;12.30;99.90
2012;DHT22;1009;51.436;6.972;2023-10-31T17:06:43;12.30;99.90
2012;DHT22;1009;51.436;6.972;2023-10-31T17:09:09;12.30;99.90
2012;DHT22;1009;51.436;6.972;2023-10-31T17:11:36;12.40;99.90
2012;DHT22;1009;51.436;6.972;2023-10-31T17:14:03;12.40;99.90
2012;DHT22;1009;51.436;6.972;2023-10-31T17:16:31;12.40;99.90
2012;DHT22;1009;51.436;6.972;2023-10-31T17:18:58;12.40;99.90
2012;DHT22;1009;51.436;6.972;2023-10-31T17:21:24;12.40;99.90
2012;DHT22;1009;51.436;6.972;2023-10-31T17:23:51;12.30;99.90
2012;DHT22;1009;51.436;6.972;2023-10-31T17:26:18;12.30;99.90
2012;DHT22;1009;51.436;6.972;2023-10-31T17:28:44;12.20;99.90
2012;DHT22;1009;51.436;6.972;2023-10-31T17:31:11;12.30;99.90
2012;DHT22;1009;51.436;6.972;2023-10-31T17:33:39;12.20;99.90
2012;DHT22;1009;51.436;6.972;2023-10-31T17:36:09;12.20;99.90
2012;DHT22;1009;51.436;6.972;2023-10-31T17:38:36;12.10;99.90
2012;DHT22;1009;51.436;6.972;2023-10-31T17:41:03;12.20;99.90
2012;DHT22;1009;51.436;6.972;2023-10-31T17:43:30;12.20;99.90
2012;DHT22;1009;51.436;6.972;2023-10-31T17:45:57;12.20;99.90
2012;DHT22;1009;51.436;6.972;2023-10-31T17:48:24;12.10;99.90
2012;DHT22;1009;51.436;6.972;2023-10-31T17:50:55;12.00;99.90
2012;DHT22;1009;51.436;6.972;2023-10-31T17:53:22;12.00;99.90
2012;DHT22;1009;51.436;6.972;2023-10-31T17:55:48;11.90;99.90
2012;DHT22;1009;51.436;6.972;2023-10-31T17:58:15;11.80;99.90
2012;DHT22;1009;51.436;6.972;2023-10-31T18:00:42;11.80;99.90
2012;DHT22;1009;51.436;6.972;2023-10-31T18:03:08;11.80;99.90
2012;DHT22;1009;51.436;6.972;2023-10-31T18:05:35;11.80;99.90
2012;DHT22;1009;51.436;6.972;2023-10-31T18:08:03;11.80;99.90
2012;DHT22;1009;51.436;6.972;2023-10-31T18:10:29;11.80;99.90
2012;DHT22;1009;51.436;6.972;2023-10-31T18:12:56;11.80;99.90
2012;DHT22;1009;51.436;6.972;2023-10-31T18:15:23;11.80;99.90
2012;DHT22;1009;51.436;6.972;2023-10-31T18:17:49;11.80;99.90
2012;DHT22;1009;51.436;6.972;2023-10-31T18:20:17;11.80;99.90
2012;DHT22;1009;51.436;6.972;2023-10-31T18:22:44;11.90;99.90
2012;DHT22;1009;51.436;6.972;2023-10-31T18:25:12;11.90;99.90
2012;DHT22;1009;51.436;6.972;2023-10-31T18:27:39;11.80;99.90
2012;DHT22;1009;51.436;6.972;2023-10-31T18:30:08;11.90;99.90
2012;DHT22;1009;51.436;6.972;2023-10-31T18:32:36;11.80;99.90
2012;DHT22;1009;51.436;6.972;2023-10-31T18:35:03;11.90;99.90
2012;DHT22;1009;51.436;6.972;2023-10-31T18:37:30;11.90;99.90
2012;DHT22;1009;51.436;6.972;2023-10-31T18:39:58;11.90;99.90
2012;DHT22;1009;51.436;6.972;2023-10-31T18:42:26;11.90;99.90
2012;DHT22;1009;51.436;6.972;2023-10-31T18:44:52;11.80;99.90
2012;DHT22;1009;51.436;6.972;2023-10-31T18:47:19;11.90;99.90
2012;DHT22;1009;51.436;6.972;2023-10-31T18:49:47;11.80;99.90
2012;DHT22;1009;51.436;6.972;2023-10-31T18:52:14;11.80;99.90
2012;DHT22;1009;51.436;6.972;2023-10-31T18:54:41;11.90;99.90
2012;DHT22;1009;51.436;6.972;2023-10-31T18:57:08;11.90;99.90
2012;DHT22;1009;51.436;6.972;2023-10-31T18:59:36;11.80;99.90
2012;DHT22;1009;51.436;6.972;2023-10-31T19:02:03;11.90;99.90
2012;DHT22;1009;51.436;6.972;2023-10-31T19:04:30;11.90;99.90
2012;DHT22;1009;51.436;6.972;2023-10-31T19:06:56;11.80;99.90
2012;DHT22;1009;51.436;6.972;2023-10-31T19:09:23;11.80;99.90
2012;DHT22;1009;51.436;6.972;2023-10-31T19:11:50;11.90;99.90
2012;DHT22;1009;51.436;6.972;2023-10-31T19:14:17;11.90;99.90
2012;DHT22;1009;51.436;6.972;2023-10-31T19:16:45;11.90;99.90
2012;DHT22;1009;51.436;6.972;2023-10-31T19:19:12;11.80;99.90
2012;DHT22;1009;51.436;6.972;2023-10-31T19:21:39;11.80;99.90
2012;DHT22;1009;51.436;6.972;2023-10-31T19:24:06;11.70;99.90
2012;DHT22;1009;51.436;6.972;2023-10-31T19:26:33;11.70;99.90
2012;DHT22;1009;51.436;6.972;2023-10-31T19:29:00;11.80;99.90
2012;DHT22;1009;51.436;6.972;2023-10-31T19:31:26;11.90;99.90
2012;DHT22;1009;51.436;6.972;2023-10-31T19:33:55;11.90;99.90
2012;DHT22;1009;51.436;6.972;2023-10-31T19:36:22;11.90;99.90
2012;DHT22;1009;51.436;6.972;2023-10-31T19:38:49;11.90;99.90
2012;DHT22;1009;51.436;6.972;2023-10-31T19:41:15;11.90;99.90
2012;DHT22;1009;51.436;6.972;2023-10-31T19:43:42;12.00;99.90
2012;DHT22;1009;51.436;6.972;2023-10-31T19:46:09;11.90;99.90
2012;DHT22;1009;51.436;6.972;2023-10-31T19:48:36;11.90;99.90
2012;DHT22;1009;51.436;6.972;2023-10-31T19:51:06;11.90;99.90
2012;DHT22;1009;51.436;6.972;2023-10-31T19:53:34;11.80;99.90
2012;DHT22;1009;51.436;6.972;2023-10-31T19:56:01;11.80;99.90
2012;DHT22;1009;51.436;6.972;2023-10-31T19:58:27;11.80;99.90
2012;DHT22;1009;51.436;6.972;2023-10-31T20:00:54;11.80;99.90
2012;DHT22;1009;51.436;6.972;2023-10-31T20:03:21;11.80;99.90
2012;DHT22;1009;51.436;6.972;2023-10-31T20:05:48;11.80;99.90
2012;DHT22;1009;51.436;6.972;2023-10-31T20:08:16;11.80;99.90
2012;DHT22;1009;51.436;6.972;2023-10-31T20:10:43;11.90;99.90